sensor_id;sensor_type;location;lat;lon;timestamp;P1;durP1;ratioP1;P2;durP2;ratioP2
51286;SDS011;37364;46.974;18.916;2023-01-23T00:00:06;410.05;;;77.78;;
51286;SDS011;37364;46.974;18.916;2023-01-23T00:02:39;335.58;;;69.07;;
51286;SDS011;37364;46.974;18.916;2023-01-23T00:05:10;370.33;;;74.03;;
51286;SDS011;37364;46.974;18.916;2023-01-23T00:07:40;305.95;;;64.13;;
51286;SDS011;37364;46.974;18.916;2023-01-23T00:10:13;318.52;;;65.97;;
51286;SDS011;37364;46.974;18.916;2023-01-23T00:12:44;251.77;;;67.13;;
51286;SDS011;37364;46.974;18.916;2023-01-23T00:15:15;292.60;;;68.57;;
51286;SDS011;37364;46.974;18.916;2023-01-23T00:17:46;238.02;;;60.85;;
51286;SDS011;37364;46.974;18.916;2023-01-23T00:20:17;248.65;;;67.63;;
51286;SDS011;37364;46.974;18.916;2023-01-23T00:22:48;217.43;;;66.43;;
51286;SDS011;37364;46.974;18.916;2023-01-23T00:25:21;194.70;;;64.97;;
51286;SDS011;37364;46.974;18.916;2023-01-23T00:27:51;175.10;;;63.67;;
51286;SDS011;37364;46.974;18.916;2023-01-23T00:30:21;140.52;;;62.30;;
51286;SDS011;37364;46.974;18.916;2023-01-23T00:32:52;162.10;;;67.93;;
51286;SDS011;37364;46.974;18.916;2023-01-23T00:35:24;176.95;;;64.65;;
51286;SDS011;37364;46.974;18.916;2023-01-23T00:37:55;172.60;;;64.18;;
51286;SDS011;37364;46.974;18.916;2023-01-23T00:40:30;175.85;;;67.57;;
51286;SDS011;37364;46.974;18.916;2023-01-23T00:43:00;166.93;;;63.83;;
51286;SDS011;37364;46.974;18.916;2023-01-23T00:45:31;160.65;;;63.67;;
51286;SDS011;37364;46.974;18.916;2023-01-23T00:48:04;151.73;;;67.35;;
51286;SDS011;37364;46.974;18.916;2023-01-23T00:50:34;168.57;;;67.18;;
51286;SDS011;37364;46.974;18.916;2023-01-23T00:53:04;175.88;;;66.70;;
51286;SDS011;37364;46.974;18.916;2023-01-23T00:55:37;156.32;;;67.22;;
51286;SDS011;37364;46.974;18.916;2023-01-23T00:58:10;148.50;;;64.55;;
51286;SDS011;37364;46.974;18.916;2023-01-23T01:00:41;152.65;;;63.38;;
51286;SDS011;37364;46.974;18.916;2023-01-23T01:03:11;150.48;;;65.10;;
51286;SDS011;37364;46.974;18.916;2023-01-23T01:05:42;152.32;;;64.05;;
51286;SDS011;37364;46.974;18.916;2023-01-23T01:08:12;150.68;;;64.13;;
51286;SDS011;37364;46.974;18.916;2023-01-23T01:10:46;156.35;;;66.72;;
51286;SDS011;37364;46.974;18.916;2023-01-23T01:13:16;163.60;;;70.88;;
51286;SDS011;37364;46.974;18.916;2023-01-23T01:15:49;153.77;;;69.57;;
51286;SDS011;37364;46.974;18.916;2023-01-23T01:18:21;155.05;;;67.90;;
51286;SDS011;37364;46.974;18.916;2023-01-23T01:20:52;167.50;;;68.65;;
51286;SDS011;37364;46.974;18.916;2023-01-23T01:23:23;152.73;;;69.03;;
51286;SDS011;37364;46.974;18.916;2023-01-23T01:25:59;162.05;;;71.45;;
51286;SDS011;37364;46.974;18.916;2023-01-23T01:28:31;167.82;;;70.60;;
51286;SDS011;37364;46.974;18.916;2023-01-23T01:31:04;158.38;;;70.82;;
51286;SDS011;37364;46.974;18.916;2023-01-23T01:33:36;162.30;;;71.47;;
51286;SDS011;37364;46.974;18.916;2023-01-23T01:36:08;172.35;;;69.20;;
51286;SDS011;37364;46.974;18.916;2023-01-23T01:38:38;153.80;;;69.95;;
51286;SDS011;37364;46.974;18.916;2023-01-23T01:41:11;156.25;;;71.47;;
51286;SDS011;37364;46.974;18.916;2023-01-23T01:43:42;149.43;;;68.15;;
51286;SDS011;37364;46.974;18.916;2023-01-23T01:46:16;152.68;;;67.80;;
51286;SDS011;37364;46.974;18.916;2023-01-23T01:48:54;157.57;;;68.53;;
51286;SDS011;37364;46.974;18.916;2023-01-23T01:51:34;152.52;;;68.38;;
51286;SDS011;37364;46.974;18.916;2023-01-23T01:54:10;154.43;;;70.07;;
51286;SDS011;37364;46.974;18.916;2023-01-23T01:56:48;156.93;;;69.40;;
51286;SDS011;37364;46.974;18.916;2023-01-23T01:59:21;147.65;;;70.47;;
51286;SDS011;37364;46.974;18.916;2023-01-23T02:01:57;138.45;;;64.82;;
51286;SDS011;37364;46.974;18.916;2023-01-23T02:04:32;137.23;;;65.97;;
51286;SDS011;37364;46.974;18.916;2023-01-23T02:07:06;130.73;;;62.97;;
51286;SDS011;37364;46.974;18.916;2023-01-23T02:09:42;125.28;;;59.53;;
51286;SDS011;37364;46.974;18.916;2023-01-23T02:12:15;133.35;;;62.08;;
51286;SDS011;37364;46.974;18.916;2023-01-23T02:14:45;112.75;;;59.55;;
51286;SDS011;37364;46.974;18.916;2023-01-23T02:17:16;114.18;;;57.20;;
51286;SDS011;37364;46.974;18.916;2023-01-23T02:19:48;104.68;;;53.60;;
51286;SDS011;37364;46.974;18.916;2023-01-23T02:22:29;105.80;;;50.03;;
51286;SDS011;37364;46.974;18.916;2023-01-23T02:25:09;109.97;;;54.88;;
51286;SDS011;37364;46.974;18.916;2023-01-23T02:27:48;100.97;;;51.47;;
51286;SDS011;37364;46.974;18.916;2023-01-23T02:30:18;109.25;;;54.88;;
51286;SDS011;37364;46.974;18.916;2023-01-23T02:32:51;92.68;;;48.88;;
51286;SDS011;37364;46.974;18.916;2023-01-23T02:35:23;90.97;;;48.15;;
51286;SDS011;37364;46.974;18.916;2023-01-23T02:38:03;87.60;;;48.10;;
51286;SDS011;37364;46.974;18.916;2023-01-23T02:40:36;71.05;;;42.63;;
51286;SDS011;37364;46.974;18.916;2023-01-23T02:43:15;73.15;;;44.03;;
51286;SDS011;37364;46.974;18.916;2023-01-23T02:45:55;68.78;;;41.25;;
51286;SDS011;37364;46.974;18.916;2023-01-23T02:48:25;67.32;;;40.90;;
51286;SDS011;37364;46.974;18.916;2023-01-23T02:50:57;65.43;;;40.22;;
51286;SDS011;37364;46.974;18.916;2023-01-23T02:53:28;71.28;;;40.63;;
51286;SDS011;37364;46.974;18.916;2023-01-23T02:55:58;62.03;;;38.97;;
51286;SDS011;37364;46.974;18.916;2023-01-23T02:58:32;60.15;;;37.40;;
51286;SDS011;37364;46.974;18.916;2023-01-23T03:01:15;60.95;;;37.35;;
51286;SDS011;37364;46.974;18.916;2023-01-23T03:03:45;61.70;;;36.78;;
51286;SDS011;37364;46.974;18.916;2023-01-23T03:06:17;65.18;;;38.03;;
51286;SDS011;37364;46.974;18.916;2023-01-23T03:08:49;58.72;;;35.17;;
51286;SDS011;37364;46.974;18.916;2023-01-23T03:13:55;57.75;;;37.20;;
51286;SDS011;37364;46.974;18.916;2023-01-23T03:16:28;65.90;;;36.88;;
51286;SDS011;37364;46.974;18.916;2023-01-23T03:18:58;64.65;;;37.95;;
51286;SDS011;37364;46.974;18.916;2023-01-23T03:21:31;56.00;;;35.60;;
51286;SDS011;37364;46.974;18.916;2023-01-23T03:24:02;59.47;;;35.53;;
51286;SDS011;37364;46.974;18.916;2023-01-23T03:26:33;56.63;;;36.53;;
51286;SDS011;37364;46.974;18.916;2023-01-23T03:29:09;54.60;;;35.05;;
51286;SDS011;37364;46.974;18.916;2023-01-23T03:31:55;63.00;;;38.20;;
51286;SDS011;37364;46.974;18.916;2023-01-23T03:34:26;62.72;;;36.17;;
51286;SDS011;37364;46.974;18.916;2023-01-23T03:36:57;62.15;;;36.78;;
51286;SDS011;37364;46.974;18.916;2023-01-23T03:39:31;63.15;;;38.30;;
51286;SDS011;37364;46.974;18.916;2023-01-23T03:42:15;64.97;;;38.03;;
51286;SDS011;37364;46.974;18.916;2023-01-23T03:44:50;69.60;;;38.53;;
51286;SDS011;37364;46.974;18.916;2023-01-23T03:47:24;59.42;;;36.30;;
51286;SDS011;37364;46.974;18.916;2023-01-23T03:49:54;61.58;;;37.72;;
51286;SDS011;37364;46.974;18.916;2023-01-23T03:52:25;65.25;;;37.13;;
51286;SDS011;37364;46.974;18.916;2023-01-23T03:54:56;62.90;;;35.95;;
51286;SDS011;37364;46.974;18.916;2023-01-23T03:57:27;63.60;;;35.85;;
51286;SDS011;37364;46.974;18.916;2023-01-23T04:00:00;55.67;;;35.38;;
51286;SDS011;37364;46.974;18.916;2023-01-23T04:02:39;55.63;;;34.00;;
51286;SDS011;37364;46.974;18.916;2023-01-23T04:05:12;60.70;;;35.60;;
51286;SDS011;37364;46.974;18.916;2023-01-23T04:07:42;52.20;;;33.13;;
51286;SDS011;37364;46.974;18.916;2023-01-23T04:10:13;50.88;;;32.72;;
51286;SDS011;37364;46.974;18.916;2023-01-23T04:12:49;46.67;;;32.05;;
51286;SDS011;37364;46.974;18.916;2023-01-23T04:15:22;49.83;;;30.33;;
51286;SDS011;37364;46.974;18.916;2023-01-23T04:17:55;49.35;;;30.63;;
51286;SDS011;37364;46.974;18.916;2023-01-23T04:20:27;45.97;;;29.40;;
51286;SDS011;37364;46.974;18.916;2023-01-23T04:22:57;48.17;;;30.20;;
51286;SDS011;37364;46.974;18.916;2023-01-23T04:25:29;52.40;;;30.60;;
51286;SDS011;37364;46.974;18.916;2023-01-23T04:27:59;43.38;;;29.05;;
51286;SDS011;37364;46.974;18.916;2023-01-23T04:30:32;46.20;;;31.00;;
51286;SDS011;37364;46.974;18.916;2023-01-23T04:33:11;54.38;;;30.17;;
51286;SDS011;37364;46.974;18.916;2023-01-23T04:35:48;45.55;;;27.58;;
51286;SDS011;37364;46.974;18.916;2023-01-23T04:38:19;45.92;;;27.33;;
51286;SDS011;37364;46.974;18.916;2023-01-23T04:40:51;39.83;;;26.27;;
51286;SDS011;37364;46.974;18.916;2023-01-23T04:43:21;37.03;;;25.23;;
51286;SDS011;37364;46.974;18.916;2023-01-23T04:45:55;38.13;;;25.45;;
51286;SDS011;37364;46.974;18.916;2023-01-23T04:50:57;33.90;;;23.80;;
51286;SDS011;37364;46.974;18.916;2023-01-23T04:53:27;40.38;;;24.30;;
51286;SDS011;37364;46.974;18.916;2023-01-23T04:56:00;37.83;;;22.97;;
51286;SDS011;37364;46.974;18.916;2023-01-23T04:58:32;40.17;;;23.50;;
51286;SDS011;37364;46.974;18.916;2023-01-23T05:01:06;32.40;;;20.88;;
51286;SDS011;37364;46.974;18.916;2023-01-23T05:03:38;35.03;;;22.42;;
51286;SDS011;37364;46.974;18.916;2023-01-23T05:06:08;29.30;;;20.73;;
51286;SDS011;37364;46.974;18.916;2023-01-23T05:08:39;33.80;;;22.92;;
51286;SDS011;37364;46.974;18.916;2023-01-23T05:11:19;27.75;;;20.95;;
51286;SDS011;37364;46.974;18.916;2023-01-23T05:13:50;34.75;;;25.50;;
51286;SDS011;37364;46.974;18.916;2023-01-23T05:16:25;60.53;;;35.88;;
51286;SDS011;37364;46.974;18.916;2023-01-23T05:19:18;58.70;;;35.50;;
51286;SDS011;37364;46.974;18.916;2023-01-23T05:21:49;44.58;;;29.95;;
51286;SDS011;37364;46.974;18.916;2023-01-23T05:24:20;38.40;;;27.52;;
51286;SDS011;37364;46.974;18.916;2023-01-23T05:26:54;40.80;;;29.73;;
51286;SDS011;37364;46.974;18.916;2023-01-23T05:29:28;33.88;;;25.77;;
51286;SDS011;37364;46.974;18.916;2023-01-23T05:32:11;28.42;;;19.75;;
51286;SDS011;37364;46.974;18.916;2023-01-23T05:34:41;29.60;;;18.57;;
51286;SDS011;37364;46.974;18.916;2023-01-23T05:37:19;23.80;;;18.23;;
51286;SDS011;37364;46.974;18.916;2023-01-23T05:39:55;27.80;;;20.67;;
51286;SDS011;37364;46.974;18.916;2023-01-23T05:42:45;26.80;;;19.15;;
51286;SDS011;37364;46.974;18.916;2023-01-23T05:45:39;26.83;;;18.98;;
51286;SDS011;37364;46.974;18.916;2023-01-23T05:48:23;31.08;;;21.83;;
51286;SDS011;37364;46.974;18.916;2023-01-23T05:53:25;25.33;;;18.25;;
51286;SDS011;37364;46.974;18.916;2023-01-23T05:55:55;25.50;;;18.10;;
51286;SDS011;37364;46.974;18.916;2023-01-23T05:58:26;27.42;;;19.33;;
51286;SDS011;37364;46.974;18.916;2023-01-23T06:01:14;26.30;;;18.48;;
51286;SDS011;37364;46.974;18.916;2023-01-23T06:04:11;26.48;;;19.15;;
51286;SDS011;37364;46.974;18.916;2023-01-23T06:06:58;26.58;;;18.88;;
51286;SDS011;37364;46.974;18.916;2023-01-23T06:09:28;37.65;;;19.75;;
51286;SDS011;37364;46.974;18.916;2023-01-23T06:11:59;30.98;;;19.58;;
51286;SDS011;37364;46.974;18.916;2023-01-23T06:14:30;28.10;;;18.80;;
51286;SDS011;37364;46.974;18.916;2023-01-23T06:17:03;26.95;;;19.30;;
51286;SDS011;37364;46.974;18.916;2023-01-23T06:19:37;37.67;;;24.55;;
51286;SDS011;37364;46.974;18.916;2023-01-23T06:22:09;34.08;;;23.80;;
51286;SDS011;37364;46.974;18.916;2023-01-23T06:24:56;26.38;;;20.05;;
51286;SDS011;37364;46.974;18.916;2023-01-23T06:27:26;26.20;;;19.55;;
51286;SDS011;37364;46.974;18.916;2023-01-23T06:29:58;31.30;;;19.48;;
51286;SDS011;37364;46.974;18.916;2023-01-23T06:32:30;21.73;;;17.20;;
51286;SDS011;37364;46.974;18.916;2023-01-23T06:35:05;25.25;;;19.40;;
51286;SDS011;37364;46.974;18.916;2023-01-23T06:37:39;25.52;;;19.15;;
51286;SDS011;37364;46.974;18.916;2023-01-23T06:40:12;30.02;;;19.20;;
51286;SDS011;37364;46.974;18.916;2023-01-23T06:43:03;29.67;;;19.23;;
51286;SDS011;37364;46.974;18.916;2023-01-23T06:45:34;27.75;;;18.27;;
51286;SDS011;37364;46.974;18.916;2023-01-23T06:48:06;23.30;;;17.20;;
51286;SDS011;37364;46.974;18.916;2023-01-23T06:50:42;24.07;;;17.53;;
51286;SDS011;37364;46.974;18.916;2023-01-23T06:53:13;25.52;;;17.08;;
51286;SDS011;37364;46.974;18.916;2023-01-23T06:55:46;21.52;;;17.73;;
51286;SDS011;37364;46.974;18.916;2023-01-23T06:58:17;22.38;;;17.17;;
51286;SDS011;37364;46.974;18.916;2023-01-23T07:00:48;26.00;;;17.25;;
51286;SDS011;37364;46.974;18.916;2023-01-23T07:03:41;25.50;;;16.45;;
51286;SDS011;37364;46.974;18.916;2023-01-23T07:06:15;23.30;;;17.70;;
51286;SDS011;37364;46.974;18.916;2023-01-23T07:08:46;25.52;;;18.60;;
51286;SDS011;37364;46.974;18.916;2023-01-23T07:11:16;25.52;;;18.08;;
51286;SDS011;37364;46.974;18.916;2023-01-23T07:13:46;29.52;;;17.67;;
51286;SDS011;37364;46.974;18.916;2023-01-23T07:16:17;27.40;;;18.33;;
51286;SDS011;37364;46.974;18.916;2023-01-23T07:18:48;23.75;;;15.20;;
51286;SDS011;37364;46.974;18.916;2023-01-23T07:21:22;21.23;;;15.50;;
51286;SDS011;37364;46.974;18.916;2023-01-23T07:23:52;25.35;;;17.90;;
51286;SDS011;37364;46.974;18.916;2023-01-23T07:26:23;26.10;;;17.02;;
51286;SDS011;37364;46.974;18.916;2023-01-23T07:28:53;22.45;;;15.70;;
51286;SDS011;37364;46.974;18.916;2023-01-23T07:31:23;25.67;;;15.43;;
51286;SDS011;37364;46.974;18.916;2023-01-23T07:33:54;20.95;;;15.65;;
51286;SDS011;37364;46.974;18.916;2023-01-23T07:36:27;26.75;;;17.75;;
51286;SDS011;37364;46.974;18.916;2023-01-23T07:38:57;25.63;;;17.67;;
51286;SDS011;37364;46.974;18.916;2023-01-23T07:41:28;22.17;;;16.23;;
51286;SDS011;37364;46.974;18.916;2023-01-23T07:44:01;24.17;;;15.52;;
51286;SDS011;37364;46.974;18.916;2023-01-23T07:46:31;31.33;;;16.88;;
51286;SDS011;37364;46.974;18.916;2023-01-23T07:49:04;25.75;;;16.60;;
51286;SDS011;37364;46.974;18.916;2023-01-23T07:51:37;24.67;;;15.82;;
51286;SDS011;37364;46.974;18.916;2023-01-23T07:54:07;23.37;;;16.03;;
51286;SDS011;37364;46.974;18.916;2023-01-23T07:56:38;23.13;;;16.52;;
51286;SDS011;37364;46.974;18.916;2023-01-23T07:59:09;21.20;;;16.02;;
51286;SDS011;37364;46.974;18.916;2023-01-23T08:01:40;26.27;;;15.45;;
51286;SDS011;37364;46.974;18.916;2023-01-23T08:04:10;22.05;;;15.95;;
51286;SDS011;37364;46.974;18.916;2023-01-23T08:06:43;23.65;;;16.85;;
51286;SDS011;37364;46.974;18.916;2023-01-23T08:09:17;22.40;;;16.38;;
51286;SDS011;37364;46.974;18.916;2023-01-23T08:11:49;27.80;;;16.80;;
51286;SDS011;37364;46.974;18.916;2023-01-23T08:14:20;24.40;;;17.02;;
51286;SDS011;37364;46.974;18.916;2023-01-23T08:16:50;23.20;;;16.25;;
51286;SDS011;37364;46.974;18.916;2023-01-23T08:19:21;21.02;;;15.73;;
51286;SDS011;37364;46.974;18.916;2023-01-23T08:21:55;27.27;;;15.48;;
51286;SDS011;37364;46.974;18.916;2023-01-23T08:24:26;25.90;;;14.93;;
51286;SDS011;37364;46.974;18.916;2023-01-23T08:26:56;23.02;;;14.98;;
51286;SDS011;37364;46.974;18.916;2023-01-23T08:29:26;22.23;;;15.38;;
51286;SDS011;37364;46.974;18.916;2023-01-23T08:31:57;19.20;;;14.52;;
51286;SDS011;37364;46.974;18.916;2023-01-23T08:34:27;20.55;;;15.15;;
51286;SDS011;37364;46.974;18.916;2023-01-23T08:37:00;24.63;;;15.35;;
51286;SDS011;37364;46.974;18.916;2023-01-23T08:39:31;20.83;;;14.50;;
51286;SDS011;37364;46.974;18.916;2023-01-23T08:42:01;21.63;;;15.65;;
51286;SDS011;37364;46.974;18.916;2023-01-23T08:44:32;27.05;;;17.05;;
51286;SDS011;37364;46.974;18.916;2023-01-23T08:47:02;27.15;;;18.10;;
51286;SDS011;37364;46.974;18.916;2023-01-23T08:49:32;24.38;;;16.73;;
51286;SDS011;37364;46.974;18.916;2023-01-23T08:52:06;23.90;;;17.60;;
51286;SDS011;37364;46.974;18.916;2023-01-23T08:54:39;24.45;;;18.02;;
51286;SDS011;37364;46.974;18.916;2023-01-23T08:57:09;23.80;;;16.02;;
51286;SDS011;37364;46.974;18.916;2023-01-23T08:59:39;27.88;;;18.63;;
51286;SDS011;37364;46.974;18.916;2023-01-23T09:02:10;26.02;;;17.38;;
51286;SDS011;37364;46.974;18.916;2023-01-23T09:04:41;22.98;;;17.15;;
51286;SDS011;37364;46.974;18.916;2023-01-23T09:07:14;23.05;;;16.92;;
51286;SDS011;37364;46.974;18.916;2023-01-23T09:09:45;26.92;;;15.75;;
51286;SDS011;37364;46.974;18.916;2023-01-23T09:12:15;21.23;;;15.90;;
51286;SDS011;37364;46.974;18.916;2023-01-23T09:14:45;21.80;;;15.70;;
51286;SDS011;37364;46.974;18.916;2023-01-23T09:17:16;22.17;;;15.35;;
51286;SDS011;37364;46.974;18.916;2023-01-23T09:19:51;19.65;;;15.20;;
51286;SDS011;37364;46.974;18.916;2023-01-23T09:22:24;21.60;;;14.98;;
51286;SDS011;37364;46.974;18.916;2023-01-23T09:24:55;24.17;;;14.80;;
51286;SDS011;37364;46.974;18.916;2023-01-23T09:27:26;20.95;;;14.50;;
51286;SDS011;37364;46.974;18.916;2023-01-23T09:29:56;16.70;;;13.15;;
51286;SDS011;37364;46.974;18.916;2023-01-23T09:32:27;19.80;;;14.23;;
51286;SDS011;37364;46.974;18.916;2023-01-23T09:34:57;20.35;;;14.75;;
51286;SDS011;37364;46.974;18.916;2023-01-23T09:37:31;20.73;;;14.13;;
51286;SDS011;37364;46.974;18.916;2023-01-23T09:40:25;26.88;;;13.43;;
51286;SDS011;37364;46.974;18.916;2023-01-23T09:42:59;17.77;;;13.43;;
51286;SDS011;37364;46.974;18.916;2023-01-23T09:45:37;20.58;;;14.48;;
51286;SDS011;37364;46.974;18.916;2023-01-23T09:48:17;17.20;;;12.75;;
51286;SDS011;37364;46.974;18.916;2023-01-23T09:50:52;18.40;;;13.65;;
51286;SDS011;37364;46.974;18.916;2023-01-23T09:53:33;17.08;;;13.02;;
51286;SDS011;37364;46.974;18.916;2023-01-23T09:56:11;19.13;;;14.32;;
51286;SDS011;37364;46.974;18.916;2023-01-23T09:58:56;20.33;;;12.88;;
51286;SDS011;37364;46.974;18.916;2023-01-23T10:01:29;16.90;;;12.27;;
51286;SDS011;37364;46.974;18.916;2023-01-23T10:04:01;22.67;;;13.13;;
51286;SDS011;37364;46.974;18.916;2023-01-23T10:06:38;15.85;;;12.85;;
51286;SDS011;37364;46.974;18.916;2023-01-23T10:09:40;20.75;;;12.82;;
51286;SDS011;37364;46.974;18.916;2023-01-23T10:12:31;19.80;;;13.38;;
51286;SDS011;37364;46.974;18.916;2023-01-23T10:15:16;14.43;;;11.43;;
51286;SDS011;37364;46.974;18.916;2023-01-23T10:17:56;17.70;;;12.57;;
51286;SDS011;37364;46.974;18.916;2023-01-23T10:20:42;16.92;;;11.93;;
51286;SDS011;37364;46.974;18.916;2023-01-23T10:23:32;15.07;;;10.68;;
51286;SDS011;37364;46.974;18.916;2023-01-23T10:26:14;15.15;;;11.52;;
51286;SDS011;37364;46.974;18.916;2023-01-23T10:28:47;14.57;;;11.27;;
51286;SDS011;37364;46.974;18.916;2023-01-23T10:31:24;13.50;;;10.02;;
51286;SDS011;37364;46.974;18.916;2023-01-23T10:34:04;12.65;;;9.85;;
51286;SDS011;37364;46.974;18.916;2023-01-23T10:36:44;16.65;;;11.02;;
51286;SDS011;37364;46.974;18.916;2023-01-23T10:39:28;17.50;;;9.35;;
51286;SDS011;37364;46.974;18.916;2023-01-23T10:42:10;11.73;;;9.10;;
51286;SDS011;37364;46.974;18.916;2023-01-23T10:44:42;12.35;;;9.75;;
51286;SDS011;37364;46.974;18.916;2023-01-23T10:47:15;12.93;;;9.65;;
51286;SDS011;37364;46.974;18.916;2023-01-23T10:49:58;14.93;;;9.23;;
51286;SDS011;37364;46.974;18.916;2023-01-23T10:52:31;12.40;;;9.65;;
51286;SDS011;37364;46.974;18.916;2023-01-23T10:57:43;12.60;;;8.85;;
51286;SDS011;37364;46.974;18.916;2023-01-23T11:00:19;12.70;;;9.57;;
51286;SDS011;37364;46.974;18.916;2023-01-23T11:05:55;14.07;;;10.20;;
51286;SDS011;37364;46.974;18.916;2023-01-23T11:08:33;20.05;;;10.13;;
51286;SDS011;37364;46.974;18.916;2023-01-23T11:11:21;14.10;;;10.15;;
51286;SDS011;37364;46.974;18.916;2023-01-23T11:14:06;15.70;;;10.93;;
51286;SDS011;37364;46.974;18.916;2023-01-23T11:16:42;12.50;;;9.23;;
51286;SDS011;37364;46.974;18.916;2023-01-23T11:19:15;14.20;;;10.68;;
51286;SDS011;37364;46.974;18.916;2023-01-23T11:21:50;15.80;;;9.98;;
51286;SDS011;37364;46.974;18.916;2023-01-23T11:24:26;12.23;;;10.50;;
51286;SDS011;37364;46.974;18.916;2023-01-23T11:27:14;18.58;;;10.88;;
51286;SDS011;37364;46.974;18.916;2023-01-23T11:29:58;19.53;;;10.70;;
51286;SDS011;37364;46.974;18.916;2023-01-23T11:32:47;14.52;;;10.30;;
51286;SDS011;37364;46.974;18.916;2023-01-23T11:35:24;12.13;;;10.05;;
51286;SDS011;37364;46.974;18.916;2023-01-23T11:38:16;18.23;;;11.27;;
51286;SDS011;37364;46.974;18.916;2023-01-23T11:40:56;14.70;;;11.15;;
51286;SDS011;37364;46.974;18.916;2023-01-23T11:43:27;15.00;;;11.38;;
51286;SDS011;37364;46.974;18.916;2023-01-23T11:46:09;16.83;;;11.82;;
51286;SDS011;37364;46.974;18.916;2023-01-23T11:49:06;15.32;;;11.05;;
51286;SDS011;37364;46.974;18.916;2023-01-23T11:51:45;19.90;;;10.82;;
51286;SDS011;37364;46.974;18.916;2023-01-23T11:57:36;17.02;;;11.40;;
51286;SDS011;37364;46.974;18.916;2023-01-23T12:00:19;16.58;;;12.32;;
51286;SDS011;37364;46.974;18.916;2023-01-23T12:06:02;16.80;;;11.50;;
51286;SDS011;37364;46.974;18.916;2023-01-23T12:08:55;18.08;;;10.35;;
51286;SDS011;37364;46.974;18.916;2023-01-23T12:11:33;15.43;;;11.68;;
51286;SDS011;37364;46.974;18.916;2023-01-23T12:14:13;15.85;;;11.63;;
51286;SDS011;37364;46.974;18.916;2023-01-23T12:16:52;14.60;;;9.25;;
51286;SDS011;37364;46.974;18.916;2023-01-23T12:19:41;14.30;;;10.27;;
51286;SDS011;37364;46.974;18.916;2023-01-23T12:22:31;18.15;;;11.15;;
51286;SDS011;37364;46.974;18.916;2023-01-23T12:25:15;15.80;;;10.80;;
51286;SDS011;37364;46.974;18.916;2023-01-23T12:27:53;15.07;;;10.15;;
51286;SDS011;37364;46.974;18.916;2023-01-23T12:30:46;18.50;;;10.57;;
51286;SDS011;37364;46.974;18.916;2023-01-23T12:33:33;22.02;;;10.15;;
51286;SDS011;37364;46.974;18.916;2023-01-23T12:36:17;17.08;;;9.93;;
51286;SDS011;37364;46.974;18.916;2023-01-23T12:39:03;18.00;;;10.93;;
51286;SDS011;37364;46.974;18.916;2023-01-23T12:41:57;14.65;;;10.43;;
51286;SDS011;37364;46.974;18.916;2023-01-23T12:44:31;13.32;;;10.20;;
51286;SDS011;37364;46.974;18.916;2023-01-23T12:47:07;12.40;;;9.23;;
51286;SDS011;37364;46.974;18.916;2023-01-23T12:49:43;14.50;;;9.95;;
51286;SDS011;37364;46.974;18.916;2023-01-23T12:52:20;15.23;;;10.18;;
51286;SDS011;37364;46.974;18.916;2023-01-23T12:54:56;25.17;;;10.70;;
51286;SDS011;37364;46.974;18.916;2023-01-23T12:57:35;12.50;;;9.77;;
51286;SDS011;37364;46.974;18.916;2023-01-23T13:00:37;14.52;;;9.98;;
51286;SDS011;37364;46.974;18.916;2023-01-23T13:03:32;12.90;;;9.90;;
51286;SDS011;37364;46.974;18.916;2023-01-23T13:06:20;16.63;;;10.85;;
51286;SDS011;37364;46.974;18.916;2023-01-23T13:08:58;11.18;;;8.55;;
51286;SDS011;37364;46.974;18.916;2023-01-23T13:11:46;12.20;;;9.73;;
51286;SDS011;37364;46.974;18.916;2023-01-23T13:14:38;12.52;;;8.75;;
51286;SDS011;37364;46.974;18.916;2023-01-23T13:17:36;10.80;;;9.25;;
51286;SDS011;37364;46.974;18.916;2023-01-23T13:20:17;13.95;;;9.68;;
51286;SDS011;37364;46.974;18.916;2023-01-23T13:25:48;16.25;;;9.68;;
51286;SDS011;37364;46.974;18.916;2023-01-23T13:28:27;15.63;;;9.25;;
51286;SDS011;37364;46.974;18.916;2023-01-23T13:31:25;14.52;;;10.02;;
51286;SDS011;37364;46.974;18.916;2023-01-23T13:34:02;14.57;;;9.90;;
51286;SDS011;37364;46.974;18.916;2023-01-23T13:37:05;16.33;;;10.00;;
51286;SDS011;37364;46.974;18.916;2023-01-23T13:40:21;15.25;;;10.27;;
51286;SDS011;37364;46.974;18.916;2023-01-23T13:42:52;14.35;;;9.57;;
51286;SDS011;37364;46.974;18.916;2023-01-23T13:45:27;15.77;;;9.50;;
51286;SDS011;37364;46.974;18.916;2023-01-23T13:51:37;12.38;;;9.63;;
51286;SDS011;37364;46.974;18.916;2023-01-23T13:57:19;14.05;;;9.93;;
51286;SDS011;37364;46.974;18.916;2023-01-23T14:02:52;17.50;;;10.82;;
51286;SDS011;37364;46.974;18.916;2023-01-23T14:06:04;13.63;;;11.88;;
51286;SDS011;37364;46.974;18.916;2023-01-23T14:08:51;17.50;;;11.13;;
51286;SDS011;37364;46.974;18.916;2023-01-23T14:15:19;16.73;;;11.38;;
51286;SDS011;37364;46.974;18.916;2023-01-23T14:18:20;16.77;;;10.43;;
51286;SDS011;37364;46.974;18.916;2023-01-23T14:24:43;13.77;;;11.60;;
51286;SDS011;37364;46.974;18.916;2023-01-23T14:27:17;14.95;;;11.63;;
51286;SDS011;37364;46.974;18.916;2023-01-23T14:29:56;22.95;;;12.18;;
51286;SDS011;37364;46.974;18.916;2023-01-23T14:32:28;23.67;;;12.57;;
51286;SDS011;37364;46.974;18.916;2023-01-23T14:35:00;13.13;;;10.97;;
51286;SDS011;37364;46.974;18.916;2023-01-23T14:37:30;15.18;;;11.00;;
51286;SDS011;37364;46.974;18.916;2023-01-23T14:40:10;16.83;;;12.40;;
51286;SDS011;37364;46.974;18.916;2023-01-23T14:42:54;17.85;;;12.48;;
51286;SDS011;37364;46.974;18.916;2023-01-23T14:45:30;23.30;;;13.30;;
51286;SDS011;37364;46.974;18.916;2023-01-23T14:48:02;18.95;;;14.73;;
51286;SDS011;37364;46.974;18.916;2023-01-23T14:50:35;18.45;;;13.73;;
51286;SDS011;37364;46.974;18.916;2023-01-23T14:53:10;19.67;;;13.55;;
51286;SDS011;37364;46.974;18.916;2023-01-23T14:55:46;20.65;;;13.55;;
51286;SDS011;37364;46.974;18.916;2023-01-23T14:58:20;16.63;;;13.05;;
51286;SDS011;37364;46.974;18.916;2023-01-23T15:00:54;15.95;;;12.57;;
51286;SDS011;37364;46.974;18.916;2023-01-23T15:03:39;20.17;;;13.13;;
51286;SDS011;37364;46.974;18.916;2023-01-23T15:06:13;22.42;;;14.82;;
51286;SDS011;37364;46.974;18.916;2023-01-23T15:08:48;18.85;;;13.27;;
51286;SDS011;37364;46.974;18.916;2023-01-23T15:11:26;21.63;;;15.18;;
51286;SDS011;37364;46.974;18.916;2023-01-23T15:13:57;21.85;;;14.25;;
51286;SDS011;37364;46.974;18.916;2023-01-23T15:16:33;17.30;;;11.70;;
51286;SDS011;37364;46.974;18.916;2023-01-23T15:19:07;14.60;;;12.32;;
51286;SDS011;37364;46.974;18.916;2023-01-23T15:21:48;16.00;;;12.27;;
51286;SDS011;37364;46.974;18.916;2023-01-23T15:24:24;15.15;;;12.40;;
51286;SDS011;37364;46.974;18.916;2023-01-23T15:27:02;20.92;;;13.77;;
51286;SDS011;37364;46.974;18.916;2023-01-23T15:29:35;17.95;;;13.40;;
51286;SDS011;37364;46.974;18.916;2023-01-23T15:32:12;20.57;;;13.53;;
51286;SDS011;37364;46.974;18.916;2023-01-23T15:34:50;23.17;;;14.10;;
51286;SDS011;37364;46.974;18.916;2023-01-23T15:37:24;22.48;;;14.45;;